Time;durP1;ratioP1;P1;durP2;ratioP2;P2;SDS_P1;SDS_P2;PMS_P1;PMS_P2;Temp;Humidity;BMP_temperature;BMP_pressure;BME280_temperature;BME280_humidity;BME280_pressure;Samples;Min_cycle;Max_cycle;Signal;HPM_P1;HPM_P2
2022/05/26 00:01:59;;;;;;;6.60;3.67;;;15.30;93.00;;;;;;5119199;28;20184;-79
2022/05/26 00:04:27;;;;;;;6.30;3.77;;;15.30;93.00;;;;;;5101071;28;20183;-84
2022/05/26 00:06:56;;;;;;;7.23;3.50;;;15.30;92.70;;;;;;5103983;28;20292;-82
2022/05/26 00:09:23;;;;;;;7.23;4.00;;;15.30;92.80;;;;;;5069908;28;20602;-80
2022/05/26 00:11:52;;;;;;;7.37;3.50;;;15.40;92.30;;;;;;5078929;28;20175;-82
2022/05/26 00:14:37;;;;;;;7.50;3.87;;;15.30;92.50;;;;;;5056444;28;20660;-83
2022/05/26 00:20:25;;;;;;;6.70;4.27;;;15.30;93.60;;;;;;5073590;28;20195;-82
2022/05/26 00:22:50;;;;;;;8.43;4.63;;;15.40;92.70;;;;;;5074030;28;20185;-81
2022/05/26 00:25:16;;;;;;;9.43;4.63;;;15.40;92.30;;;;;;5055785;28;20195;-83
2022/05/26 00:27:42;;;;;;;9.40;5.40;;;15.40;91.70;;;;;;5073853;28;20215;-80
2022/05/26 00:30:09;;;;;;;10.00;5.00;;;15.40;91.70;;;;;;5073721;28;20199;-80
2022/05/26 00:32:34;;;;;;;9.77;4.80;;;15.50;91.90;;;;;;5056282;28;20714;-81
2022/05/26 00:35:00;;;;;;;9.43;5.57;;;15.50;91.50;;;;;;5073573;28;20273;-84
2022/05/26 00:37:26;;;;;;;8.00;5.20;;;15.50;91.30;;;;;;5055837;28;20196;-84
2022/05/26 00:39:53;;;;;;;10.37;5.30;;;15.40;91.50;;;;;;5073844;28;20289;-82
2022/05/26 00:42:18;;;;;;;17.33;6.10;;;15.40;91.50;;;;;;5073966;28;20178;-81
2022/05/26 00:44:44;;;;;;;10.53;5.37;;;15.40;92.20;;;;;;5055806;28;20184;-81
2022/05/26 00:47:20;;;;;;;12.80;6.23;;;15.40;92.40;;;;;;5055490;28;20301;-82
2022/05/26 00:49:59;;;;;;;13.20;6.43;;;15.60;92.40;;;;;;5073782;28;20186;-81
2022/05/26 00:52:42;;;;;;;10.53;5.83;;;15.60;90.70;;;;;;5073621;28;20191;-83
2022/05/26 00:55:16;;;;;;;10.43;5.57;;;15.60;90.20;;;;;;5074068;28;20276;-83
2022/05/26 00:58:09;;;;;;;11.50;5.50;;;15.70;88.30;;;;;;5074693;28;20189;-81
2022/05/26 01:00:38;;;;;;;13.77;6.37;;;15.50;90.60;;;;;;5068039;28;20198;-83
2022/05/26 01:03:30;;;;;;;15.20;5.77;;;15.50;91.40;;;;;;5074879;28;20239;-79
2022/05/26 01:06:22;;;;;;;14.20;6.37;;;15.50;91.20;;;;;;5071705;28;20828;-80
2022/05/26 01:08:58;;;;;;;12.77;6.33;;;15.50;90.90;;;;;;5080397;28;20257;-82
2022/05/26 01:11:25;;;;;;;11.17;6.33;;;15.60;90.70;;;;;;5093107;28;20249;-83
2022/05/26 01:14:19;;;;;;;15.43;6.00;;;15.50;91.40;;;;;;5093067;28;20179;-83
2022/05/26 01:17:03;;;;;;;16.43;6.47;;;15.60;90.50;;;;;;5100433;28;20221;-81
2022/05/26 01:19:52;;;;;;;14.73;6.27;;;15.50;90.60;;;;;;5100286;28;20174;-82
2022/05/26 01:22:29;;;;;;;12.43;6.33;;;15.50;91.30;;;;;;5096326;28;20541;-80
2022/05/26 01:25:18;;;;;;;12.13;6.33;;;15.50;91.30;;;;;;5095892;28;20207;-82
2022/05/26 01:27:48;;;;;;;14.27;7.33;;;15.50;90.50;;;;;;5097178;28;20287;-84
2022/05/26 01:30:23;;;;;;;14.03;6.60;;;15.60;90.80;;;;;;5097640;28;20178;-80
2022/05/26 01:32:59;;;;;;;12.70;5.90;;;15.50;91.00;;;;;;5100948;28;20185;-79
2022/05/26 01:35:33;;;;;;;14.70;7.00;;;15.40;91.10;;;;;;5082210;28;20200;-80
2022/05/26 01:38:11;;;;;;;15.33;6.50;;;15.40;91.70;;;;;;5097388;28;20191;-82
2022/05/26 01:41:10;;;;;;;17.93;6.40;;;15.30;92.20;;;;;;5097585;28;20566;-83
2022/05/26 01:43:48;;;;;;;17.70;6.17;;;15.30;92.80;;;;;;5097188;28;20260;-82
2022/05/26 01:46:29;;;;;;;10.50;6.77;;;15.30;93.00;;;;;;5097418;28;20242;-83
2022/05/26 01:49:04;;;;;;;13.20;6.03;;;15.30;93.10;;;;;;5097146;28;20640;-80
2022/05/26 01:51:39;;;;;;;15.00;6.47;;;15.30;93.00;;;;;;5080075;28;20200;-83
2022/05/26 01:54:23;;;;;;;15.50;6.77;;;15.30;92.90;;;;;;5099455;28;20199;-81
2022/05/26 01:57:05;;;;;;;14.87;6.50;;;15.40;92.10;;;;;;5098314;28;20202;-82
2022/05/26 01:59:34;;;;;;;13.77;6.73;;;15.50;91.50;;;;;;5097078;28;20259;-83
2022/05/26 02:02:05;;;;;;;17.93;6.90;;;15.50;91.50;;;;;;5096821;28;20621;-80
2022/05/26 02:04:42;;;;;;;17.27;7.77;;;15.40;91.90;;;;;;5078393;28;20631;-83
2022/05/26 02:07:21;;;;;;;13.87;7.43;;;15.40;91.90;;;;;;5078405;28;20586;-81
2022/05/26 02:09:52;;;;;;;13.63;7.30;;;15.40;92.00;;;;;;5078332;28;20649;-81
2022/05/26 02:12:41;;;;;;;16.03;7.00;;;15.40;92.50;;;;;;5096662;28;20634;-82
2022/05/26 02:15:10;;;;;;;18.00;7.80;;;15.40;92.90;;;;;;5121133;28;20180;-82
2022/05/26 02:17:42;;;;;;;15.70;6.33;;;15.40;92.60;;;;;;5111657;28;20226;-82
2022/05/26 02:20:14;;;;;;;16.23;6.43;;;15.30;92.40;;;;;;5085580;28;20194;-82
2022/05/26 02:26:03;;;;;;;12.57;6.90;;;15.20;93.30;;;;;;5096810;28;20231;-82
2022/05/26 02:29:51;;;;;;;15.40;6.43;;;15.30;93.20;;;;;;5078277;28;20714;-82
2022/05/26 02:31:18;;;;;;;12.30;6.80;;;15.30;92.90;;;;;;5096340;28;20280;-81
2022/05/26 02:33:45;;;;;;;16.20;7.00;;;15.40;92.20;;;;;;5078696;28;20191;-82
2022/05/26 02:36:12;;;;;;;13.33;6.43;;;15.40;93.10;;;;;;5078694;28;20645;-82
2022/05/26 02:38:38;;;;;;;15.87;6.33;;;15.30;93.20;;;;;;5100518;28;20258;-81
2022/05/26 02:41:03;;;;;;;17.10;6.60;;;15.30;93.30;;;;;;5100528;28;20174;-82
2022/05/26 02:43:32;;;;;;;16.53;6.87;;;15.30;92.30;;;;;;5090032;28;20209;-81
2022/05/26 02:46:15;;;;;;;14.07;6.67;;;15.50;91.40;;;;;;5102128;28;20183;-81
2022/05/26 02:49:22;;;;;;;15.63;6.20;;;15.30;91.30;;;;;;5077762;28;20535;-81
2022/05/26 02:52:22;;;;;;;15.70;6.83;;;15.20;92.40;;;;;;5077866;28;20184;-82
2022/05/26 02:54:51;;;;;;;17.93;6.57;;;15.30;92.30;;;;;;5081729;28;20204;-81
2022/05/26 02:57:43;;;;;;;18.60;6.70;;;15.30;92.00;;;;;;5085680;28;20169;-81
2022/05/26 03:00:22;;;;;;;15.77;7.07;;;15.30;91.90;;;;;;5119959;28;20176;-81
2022/05/26 03:02:50;;;;;;;16.37;6.70;;;15.30;91.90;;;;;;5118648;28;20170;-81
2022/05/26 03:05:22;;;;;;;20.00;6.20;;;15.30;91.90;;;;;;5119563;28;20186;-81
2022/05/26 03:07:54;;;;;;;19.47;6.97;;;15.30;91.50;;;;;;5102785;28;20203;-80
2022/05/26 03:10:30;;;;;;;13.03;6.47;;;15.20;91.70;;;;;;5119530;28;20168;-81
2022/05/26 03:13:03;;;;;;;16.67;6.50;;;15.30;92.10;;;;;;5108981;28;20192;-80
2022/05/26 03:15:31;;;;;;;16.87;7.37;;;15.20;92.70;;;;;;5091328;28;20269;-81
2022/05/26 03:18:01;;;;;;;18.67;6.67;;;15.30;91.80;;;;;;5106667;28;20234;-82
2022/05/26 03:21:03;;;;;;;17.10;6.93;;;15.30;91.20;;;;;;5095570;28;20240;-80
2022/05/26 03:26:51;;;;;;;16.00;6.43;;;15.30;92.20;;;;;;5093015;28;20660;-82
2022/05/26 03:29:16;;;;;;;18.97;6.67;;;15.30;92.10;;;;;;5093913;28;20195;-83
2022/05/26 03:31:44;;;;;;;18.77;6.40;;;15.40;91.50;;;;;;5076852;28;20193;-82
2022/05/26 03:42:23;;;;;;;13.83;6.93;;;15.20;91.40;;;;;;5102276;28;20188;-80
2022/05/26 03:44:49;;;;;;;16.97;6.27;;;15.20;92.20;;;;;;5088787;28;20181;-80
2022/05/26 03:47:14;;;;;;;21.97;6.50;;;15.30;91.70;;;;;;5101712;28;20217;-82
2022/05/26 03:49:40;;;;;;;18.20;6.83;;;15.20;92.30;;;;;;5077364;28;20629;-82
2022/05/26 03:52:06;;;;;;;21.43;7.20;;;15.10;92.70;;;;;;5076353;28;20643;-80
2022/05/26 03:54:33;;;;;;;14.63;6.73;;;15.20;91.90;;;;;;5094993;28;20181;-80
2022/05/26 03:56:58;;;;;;;17.03;6.17;;;15.30;91.60;;;;;;5076997;28;20184;-82
2022/05/26 03:59:24;;;;;;;23.77;7.23;;;15.20;92.00;;;;;;5094597;28;20185;-82
2022/05/26 04:01:50;;;;;;;19.00;7.57;;;15.20;93.10;;;;;;5095154;28;20181;-81
2022/05/26 04:04:17;;;;;;;22.03;7.53;;;15.10;93.10;;;;;;5077259;28;20655;-80
2022/05/26 04:06:43;;;;;;;16.97;7.07;;;15.10;93.40;;;;;;5095677;28;20701;-79
2022/05/26 04:09:08;;;;;;;20.60;7.17;;;15.10;92.90;;;;;;5094934;28;20208;-80
2022/05/26 04:11:35;;;;;;;23.53;8.07;;;15.10;92.60;;;;;;5077777;28;20180;-82
2022/05/26 04:14:01;;;;;;;20.70;7.53;;;15.20;92.80;;;;;;5096440;28;20196;-82
2022/05/26 04:16:26;;;;;;;18.53;7.07;;;15.10;92.70;;;;;;5096771;28;20215;-81
2022/05/26 04:18:52;;;;;;;16.27;6.57;;;15.10;92.80;;;;;;5100543;28;20177;-81
2022/05/26 04:21:18;;;;;;;17.13;6.20;;;15.10;93.00;;;;;;5104265;28;20248;-81
2022/05/26 04:23:44;;;;;;;18.50;6.70;;;15.10;92.90;;;;;;5108757;28;20197;-80
2022/05/26 04:26:10;;;;;;;21.27;7.30;;;15.20;91.70;;;;;;5100015;28;20183;-82
2022/05/26 04:28:36;;;;;;;22.60;7.13;;;15.20;91.10;;;;;;5117583;28;20200;-79
2022/05/26 04:31:03;;;;;;;15.70;5.67;;;15.20;91.50;;;;;;5115472;28;20181;-82
2022/05/26 04:33:29;;;;;;;18.03;6.43;;;15.20;91.00;;;;;;5111715;28;20209;-81
2022/05/26 04:35:54;;;;;;;15.03;6.07;;;15.10;91.70;;;;;;5100398;28;20201;-80
2022/05/26 04:38:20;;;;;;;20.57;6.77;;;15.20;91.00;;;;;;5117834;28;20210;-78
2022/05/26 04:40:59;;;;;;;21.57;6.60;;;15.20;90.20;;;;;;5100582;28;20169;-78
2022/05/26 04:43:26;;;;;;;18.67;6.90;;;15.10;89.60;;;;;;5117276;28;20198;-79
2022/05/26 04:45:52;;;;;;;17.97;6.40;;;15.10;90.40;;;;;;5113454;28;20184;-81
2022/05/26 04:48:25;;;;;;;22.23;7.00;;;14.90;90.10;;;;;;5098000;28;20272;-81
2022/05/26 04:50:52;;;;;;;15.60;6.47;;;15.00;90.40;;;;;;5115500;28;20185;-80
2022/05/26 04:53:53;;;;;;;22.40;6.97;;;15.20;91.10;;;;;;5114821;28;20169;-78
2022/05/26 04:56:23;;;;;;;16.20;6.07;;;15.10;88.70;;;;;;5115702;28;20181;-80
2022/05/26 04:58:56;;;;;;;18.10;6.60;;;15.10;89.40;;;;;;5116383;28;20170;-81
2022/05/26 05:01:41;;;;;;;19.57;6.40;;;15.20;87.40;;;;;;5089682;28;20192;-80
2022/05/26 05:07:29;;;;;;;23.00;6.90;;;15.20;85.80;;;;;;5108328;28;20247;-81
2022/05/26 05:10:08;;;;;;;19.87;8.33;;;15.20;88.40;;;;;;5087360;28;20191;-80
2022/05/26 05:12:35;;;;;;;17.50;7.80;;;15.10;89.00;;;;;;5104006;28;20212;-81
2022/05/26 05:15:03;;;;;;;19.93;7.53;;;15.10;87.80;;;;;;5109218;28;20193;-82
2022/05/26 05:17:30;;;;;;;19.03;7.10;;;15.10;88.50;;;;;;5106511;28;20187;-79
2022/05/26 05:19:56;;;;;;;21.37;7.87;;;15.10;88.50;;;;;;5102595;28;20264;-80
2022/05/26 05:22:46;;;;;;;19.47;9.13;;;15.10;88.10;;;;;;5097848;28;20259;-82
2022/05/26 05:25:26;;;;;;;21.40;9.40;;;15.00;88.30;;;;;;5079579;28;20185;-81
2022/05/26 05:28:16;;;;;;;20.10;8.67;;;15.00;87.30;;;;;;5097925;28;20208;-79
2022/05/26 05:30:56;;;;;;;21.10;8.73;;;15.00;88.30;;;;;;5099389;28;20176;-82
2022/05/26 05:33:26;;;;;;;18.47;8.67;;;15.00;86.60;;;;;;5097770;28;20173;-82
2022/05/26 05:35:57;;;;;;;21.03;9.10;;;15.00;87.80;;;;;;5079829;28;20217;-81
2022/05/26 05:38:23;;;;;;;23.63;8.13;;;15.20;87.80;;;;;;5079578;28;20177;-81
2022/05/26 05:40:50;;;;;;;22.83;8.20;;;15.00;84.60;;;;;;5119039;28;20172;-79
2022/05/26 05:43:18;;;;;;;20.73;8.00;;;15.20;85.40;;;;;;5100740;28;20222;-81
2022/05/26 05:45:45;;;;;;;19.57;8.30;;;15.30;83.10;;;;;;5087152;28;20185;-82
2022/05/26 05:48:11;;;;;;;20.00;8.60;;;15.30;82.80;;;;;;5080872;28;20270;-82
2022/05/26 05:51:01;;;;;;;22.57;8.30;;;15.30;81.80;;;;;;5097627;28;20180;-80
2022/05/26 05:53:27;;;;;;;21.93;8.23;;;15.40;77.20;;;;;;5080319;28;20722;-84
2022/05/26 05:55:52;;;;;;;16.63;8.33;;;15.40;75.10;;;;;;5081558;28;20227;-81
2022/05/26 05:58:18;;;;;;;20.63;9.27;;;15.30;76.50;;;;;;5082382;28;20254;-82
2022/05/26 06:00:45;;;;;;;19.37;8.87;;;15.30;79.60;;;;;;5100142;28;20237;-80
2022/05/26 06:03:12;;;;;;;21.93;8.67;;;15.40;79.70;;;;;;5108904;28;20220;-82
2022/05/26 06:05:38;;;;;;;20.53;9.63;;;15.50;76.30;;;;;;5103154;28;20201;-80
2022/05/26 06:08:06;;;;;;;21.80;9.57;;;15.50;71.40;;;;;;5117842;28;20261;-79
2022/05/26 06:10:32;;;;;;;21.07;11.00;;;15.50;68.20;;;;;;5107396;28;20178;-80
2022/05/26 06:13:01;;;;;;;21.47;10.17;;;15.40;68.10;;;;;;5087422;28;20354;-82
2022/05/26 06:15:59;;;;;;;17.07;9.50;;;15.30;71.70;;;;;;5082232;28;20268;-81
2022/05/26 06:18:34;;;;;;;20.13;10.63;;;15.20;73.00;;;;;;5098108;28;20231;-82
2022/05/26 06:21:02;;;;;;;23.60;10.23;;;15.30;73.20;;;;;;5100526;28;20188;-82
2022/05/26 06:23:27;;;;;;;19.70;9.93;;;15.20;76.10;;;;;;5101035;28;20189;-83
2022/05/26 06:25:53;;;;;;;17.87;9.53;;;15.20;77.40;;;;;;5085224;28;20180;-83
2022/05/26 06:31:03;;;;;;;16.13;9.50;;;15.30;72.80;;;;;;5099013;28;20224;-82
2022/05/26 06:39:03;;;;;;;20.77;10.30;;;15.30;69.30;;;;;;5063035;28;20225;-82
2022/05/26 06:44:14;;;;;;;19.03;9.27;;;15.30;68.20;;;;;;5097175;28;20212;-83
2022/05/26 06:46:41;;;;;;;19.60;10.13;;;15.30;67.80;;;;;;5096867;28;20206;-83
2022/05/26 06:49:06;;;;;;;17.63;9.83;;;15.30;70.10;;;;;;5078467;28;20728;-84
2022/05/26 06:51:36;;;;;;;14.93;8.67;;;15.40;70.50;;;;;;5078305;28;20190;-81
2022/05/26 06:54:05;;;;;;;19.13;8.67;;;15.50;67.70;;;;;;5078869;28;20282;-84
2022/05/26 06:56:44;;;;;;;18.03;8.03;;;15.60;65.10;;;;;;5113820;28;20193;-83
2022/05/26 06:59:10;;;;;;;17.67;7.93;;;15.70;64.30;;;;;;5077583;28;20235;-84
2022/05/26 07:01:37;;;;;;;19.83;7.80;;;15.70;62.40;;;;;;5079863;28;20288;-83
2022/05/26 07:04:03;;;;;;;17.00;7.20;;;15.80;62.10;;;;;;5098518;28;20178;-83
2022/05/26 07:06:29;;;;;;;17.03;7.00;;;15.80;58.20;;;;;;5081915;28;20190;-84
2022/05/26 07:08:55;;;;;;;14.67;6.33;;;15.90;57.10;;;;;;5082545;28;20208;-82
2022/05/26 07:11:22;;;;;;;13.37;6.37;;;16.00;56.30;;;;;;5079433;28;20191;-81
2022/05/26 07:13:48;;;;;;;15.27;6.70;;;16.10;51.80;;;;;;5096246;28;20184;-85
2022/05/26 07:16:15;;;;;;;16.90;6.70;;;16.20;49.00;;;;;;5097773;28;20225;-82
2022/05/26 07:18:42;;;;;;;16.87;6.70;;;16.30;46.80;;;;;;5079022;28;20191;-83
2022/05/26 07:21:10;;;;;;;17.33;6.83;;;16.50;39.80;;;;;;5097500;28;20700;-81
2022/05/26 07:23:36;;;;;;;17.97;7.43;;;16.50;40.10;;;;;;5096653;28;20183;-81
2022/05/26 07:26:07;;;;;;;18.37;6.97;;;16.50;38.70;;;;;;5101564;28;20202;-82
2022/05/26 07:28:35;;;;;;;12.43;6.63;;;16.50;39.80;;;;;;5104653;28;20223;-82
2022/05/26 07:31:02;;;;;;;18.10;6.83;;;16.50;34.40;;;;;;5097227;28;20279;-83
2022/05/26 07:33:28;;;;;;;14.30;7.27;;;16.40;33.90;;;;;;5096398;28;20191;-83
2022/05/26 07:35:55;;;;;;;15.43;7.07;;;16.50;35.70;;;;;;5095679;28;20176;-82
2022/05/26 07:41:17;;;;;;;16.80;7.50;;;16.40;28.70;;;;;;5096340;28;20596;-84
2022/05/26 07:43:47;;;;;;;15.80;7.10;;;16.30;31.50;;;;;;5078145;28;20186;-82
2022/05/26 07:46:14;;;;;;;13.97;7.13;;;16.40;34.20;;;;;;5080271;28;20558;-80
2022/05/26 07:48:40;;;;;;;14.30;7.57;;;16.30;33.70;;;;;;5082497;28;20692;-82
2022/05/26 07:51:06;;;;;;;15.03;7.07;;;16.50;33.40;;;;;;5100180;28;20264;-83
2022/05/26 07:53:32;;;;;;;19.20;7.20;;;16.60;33.40;;;;;;5099858;28;20176;-79
2022/05/26 07:56:00;;;;;;;16.23;6.60;;;16.40;35.30;;;;;;5101634;28;20652;-81
2022/05/26 07:58:26;;;;;;;18.00;7.63;;;16.40;40.60;;;;;;5095327;28;20244;-85
2022/05/26 08:00:53;;;;;;;15.50;7.40;;;16.40;40.30;;;;;;5103164;28;20201;-85
2022/05/26 08:03:19;;;;;;;17.07;6.47;;;16.40;35.60;;;;;;5104120;28;20270;-86
2022/05/26 08:05:45;;;;;;;18.13;6.40;;;16.40;41.10;;;;;;5102939;28;20555;-84
2022/05/26 08:08:11;;;;;;;13.50;6.07;;;16.40;45.00;;;;;;5104733;28;20206;-81
2022/05/26 08:10:38;;;;;;;18.53;6.67;;;16.50;41.30;;;;;;5109469;28;20659;-84
2022/05/26 08:13:04;;;;;;;14.17;5.77;;;16.40;37.10;;;;;;5102372;28;20184;-80
2022/05/26 08:15:32;;;;;;;18.90;5.87;;;16.40;36.30;;;;;;5095917;28;20223;-81
2022/05/26 08:17:58;;;;;;;13.37;5.03;;;16.50;36.30;;;;;;5082627;28;20187;-85
2022/05/26 08:20:24;;;;;;;14.47;6.07;;;16.60;35.10;;;;;;5067582;28;20191;-84
2022/05/26 08:22:50;;;;;;;14.10;5.87;;;16.80;28.90;;;;;;5074829;28;20223;-85
2022/05/26 08:25:16;;;;;;;11.27;5.10;;;16.50;32.20;;;;;;5058498;28;20268;-83
2022/05/26 08:27:41;;;;;;;14.70;5.77;;;16.40;38.50;;;;;;5084426;28;20203;-82
2022/05/26 08:30:08;;;;;;;11.93;5.40;;;16.60;35.30;;;;;;5067324;28;20191;-82
2022/05/26 08:32:34;;;;;;;13.47;5.10;;;16.60;36.50;;;;;;5078053;28;20647;-83
2022/05/26 08:35:05;;;;;;;11.37;4.90;;;16.70;29.20;;;;;;5066822;28;20227;-83
2022/05/26 08:37:32;;;;;;;16.30;5.93;;;16.70;29.00;;;;;;5091945;28;20214;-85
2022/05/26 08:39:58;;;;;;;13.10;4.97;;;16.90;29.80;;;;;;5097170;28;20202;-82
2022/05/26 08:42:31;;;;;;;13.70;4.27;;;16.90;27.50;;;;;;5116268;28;20245;-84
2022/05/26 08:45:11;;;;;;;13.20;4.57;;;16.90;28.50;;;;;;5115805;28;20247;-84
2022/05/26 08:47:49;;;;;;;13.70;4.60;;;16.90;28.90;;;;;;5089300;28;20230;-86
2022/05/26 08:50:21;;;;;;;13.17;3.97;;;16.90;29.80;;;;;;5115396;28;20174;-83
2022/05/26 08:52:52;;;;;;;9.60;4.60;;;17.00;20.60;;;;;;5115427;28;20263;-79
2022/05/26 08:55:31;;;;;;;12.60;3.77;;;17.00;17.50;;;;;;5110945;28;20182;-81
2022/05/26 08:58:19;;;;;;;10.93;4.03;;;17.00;9.10;;;;;;5072482;28;20596;-81
2022/05/26 09:00:51;;;;;;;12.17;3.63;;;17.00;13.00;;;;;;5104829;28;20195;-78
2022/05/26 09:03:50;;;;;;;10.47;4.00;;;17.20;1.90;;;;;;5096719;28;20191;-82
2022/05/26 09:06:20;;;;;;;10.43;3.70;;;17.20;1.00;;;;;;5095737;28;20211;-81
2022/05/26 09:14:01;;;;;;;10.60;3.67;;;17.20;1.00;;;;;;5108096;28;20167;-82
2022/05/26 09:16:31;;;;;;;12.90;3.80;;;17.10;1.80;;;;;;5118727;28;20191;-83
2022/05/26 09:19:09;;;;;;;12.30;4.27;;;17.20;2.70;;;;;;5118201;28;20195;-83
2022/05/26 09:21:36;;;;;;;11.87;3.90;;;17.30;1.00;;;;;;5099438;28;20225;-86
2022/05/26 09:24:16;;;;;;;10.13;3.80;;;17.30;1.00;;;;;;5111237;28;20192;-84
2022/05/26 09:26:51;;;;;;;11.40;4.00;;;17.50;1.00;;;;;;5082166;28;20188;-85
2022/05/26 09:29:23;;;;;;;8.23;3.50;;;17.70;1.00;;;;;;5099250;28;20763;-84
2022/05/26 09:31:50;;;;;;;9.87;3.40;;;17.90;1.00;;;;;;5089850;28;20191;-82
2022/05/26 09:34:23;;;;;;;7.97;2.90;;;17.70;1.00;;;;;;5102641;28;20231;-84
2022/05/26 09:37:35;;;;;;;9.10;3.47;;;18.00;1.00;;;;;;5100954;28;20631;-85
2022/05/26 09:40:27;;;;;;;10.80;3.73;;;18.30;1.00;;;;;;5094749;28;20211;-85
2022/05/26 09:43:17;;;;;;;12.37;4.97;;;18.40;1.00;;;;;;5091337;28;20214;-84
2022/05/26 09:45:57;;;;;;;8.27;4.83;;;18.50;1.00;;;;;;5118412;28;20168;-80
2022/05/26 09:48:33;;;;;;;11.77;6.03;;;18.40;1.00;;;;;;5119856;28;20188;-78
2022/05/26 09:51:09;;;;;;;10.17;5.13;;;18.50;1.00;;;;;;5102029;28;20190;-79
2022/05/26 09:53:38;;;;;;;12.30;5.30;;;18.60;1.00;;;;;;5101798;28;20187;-79
2022/05/26 09:56:13;;;;;;;7.40;3.40;;;18.70;1.00;;;;;;5101396;28;20573;-79
2022/05/26 09:59:19;;;;;;;8.57;3.30;;;18.60;1.00;;;;;;5095777;28;20175;-85
2022/05/26 10:02:29;;;;;;;9.80;3.40;;;18.30;1.00;;;;;;5112489;28;20179;-79
2022/05/26 10:08:25;;;;;;;10.27;4.10;;;18.10;1.00;;;;;;5110609;28;20226;-85
2022/05/26 10:11:09;;;;;;;9.47;4.40;;;18.20;1.00;;;;;;5108992;28;20206;-84
2022/05/26 10:13:50;;;;;;;11.10;4.77;;;18.40;1.00;;;;;;5113642;28;20179;-83
2022/05/26 10:16:29;;;;;;;10.10;4.40;;;18.70;1.00;;;;;;5109036;28;20175;-81
2022/05/26 10:19:06;;;;;;;8.60;4.00;;;19.00;1.00;;;;;;5109793;28;20194;-82
2022/05/26 10:22:10;;;;;;;6.40;3.40;;;19.30;1.00;;;;;;5109198;28;20173;-83
2022/05/26 10:24:47;;;;;;;9.57;4.00;;;19.20;1.00;;;;;;5107160;28;20192;-84
2022/05/26 10:27:28;;;;;;;6.13;3.03;;;19.20;1.00;;;;;;5087179;28;20198;-81
2022/05/26 10:30:15;;;;;;;7.00;3.43;;;19.30;1.00;;;;;;5106780;28;20222;-86
2022/05/26 10:33:08;;;;;;;9.07;3.37;;;19.10;1.00;;;;;;5106199;28;20194;-85
2022/05/26 10:35:52;;;;;;;10.83;3.40;;;19.30;1.00;;;;;;5104541;28;20180;-85
2022/05/26 10:38:37;;;;;;;7.37;3.30;;;19.40;1.00;;;;;;5105050;28;20179;-86
2022/05/26 10:41:30;;;;;;;9.47;3.40;;;19.60;1.00;;;;;;5106755;28;20227;-84
2022/05/26 10:44:13;;;;;;;8.83;3.20;;;19.50;1.00;;;;;;5089154;28;20168;-85
2022/05/26 10:46:46;;;;;;;9.47;3.30;;;19.40;1.00;;;;;;5104964;28;20187;-86
2022/05/26 10:49:21;;;;;;;7.80;2.90;;;19.50;1.00;;;;;;5106472;28;20202;-82
2022/05/26 10:52:19;;;;;;;4.33;2.43;;;19.40;1.00;;;;;;5104423;28;20186;-87
2022/05/26 10:54:51;;;;;;;7.20;2.70;;;19.30;1.00;;;;;;5108137;28;20210;-85
2022/05/26 10:57:46;;;;;;;8.87;2.47;;;19.20;1.00;;;;;;5111093;28;20163;-83
2022/05/26 11:00:26;;;;;;;9.23;2.60;;;19.40;1.00;;;;;;5099993;28;20210;-82
2022/05/26 11:03:15;;;;;;;5.70;2.50;;;19.60;1.00;;;;;;5115484;28;20187;-84
2022/05/26 11:06:01;;;;;;;7.33;2.70;;;19.50;1.00;;;;;;5096702;28;20175;-82
2022/05/26 11:08:51;;;;;;;6.37;2.57;;;19.70;1.00;;;;;;5107768;28;20211;-81
2022/05/26 11:11:38;;;;;;;7.63;2.70;;;19.80;1.00;;;;;;5106053;28;20253;-81
2022/05/26 11:17:56;;;;;;;6.67;2.30;;;19.50;1.00;;;;;;5108866;28;20249;-83
2022/05/26 11:20:26;;;;;;;8.93;2.30;;;19.60;1.00;;;;;;5109858;28;20249;-84
2022/05/26 11:22:53;;;;;;;6.93;2.50;;;19.80;1.00;;;;;;5110535;28;20187;-83
2022/05/26 11:25:56;;;;;;;4.93;1.77;;;20.10;1.00;;;;;;5108733;28;20183;-84
2022/05/26 11:29:00;;;;;;;4.90;1.73;;;19.90;99.90;;;;;;5047910;28;20248;-85
2022/05/26 11:37:41;;;;;;;6.73;2.13;;;20.00;99.90;;;;;;5106001;28;20219;-84
2022/05/26 11:40:26;;;;;;;6.67;2.10;;;20.10;99.90;;;;;;5088842;28;20181;-84
2022/05/26 11:42:57;;;;;;;7.17;2.43;;;19.90;99.90;;;;;;5088292;28;20259;-84
2022/05/26 11:45:33;;;;;;;7.70;2.73;;;19.70;1.00;;;;;;5084580;28;20214;-82
2022/05/26 11:48:26;;;;;;;7.83;2.17;;;19.70;1.00;;;;;;5085343;28;20278;-86
2022/05/26 11:51:23;;;;;;;7.40;2.27;;;20.00;99.90;;;;;;5086858;28;20192;-85
2022/05/26 11:53:50;;;;;;;7.03;1.97;;;20.00;1.00;;;;;;5108714;28;20195;-85
2022/05/26 11:56:29;;;;;;;6.00;2.10;;;20.10;99.90;;;;;;5103216;28;20194;-85
2022/05/26 11:59:26;;;;;;;5.27;1.50;;;20.30;99.90;;;;;;5106286;28;20175;-85
2022/05/26 12:02:04;;;;;;;5.83;1.73;;;20.50;99.90;;;;;;5108577;28;20184;-85
2022/05/26 12:04:35;;;;;;;6.57;1.90;;;20.50;99.90;;;;;;5085380;28;20193;-85
2022/05/26 12:07:05;;;;;;;7.73;2.07;;;20.60;99.90;;;;;;5108155;28;20212;-84
2022/05/26 12:09:39;;;;;;;7.27;2.37;;;20.80;99.90;;;;;;5103736;28;20183;-82
2022/05/26 12:12:25;;;;;;;8.33;2.00;;;20.80;99.90;;;;;;5110850;28;20180;-80
2022/05/26 12:14:52;;;;;;;6.20;1.87;;;20.90;99.90;;;;;;5099217;28;20180;-79
2022/05/26 12:17:55;;;;;;;7.17;2.10;;;20.70;99.90;;;;;;5113590;28;20165;-83
2022/05/26 12:20:25;;;;;;;6.10;2.27;;;20.50;99.90;;;;;;5117337;28;20210;-79
2022/05/26 12:23:06;;;;;;;6.77;1.67;;;20.70;99.90;;;;;;5116327;28;20180;-84
2022/05/26 12:25:46;;;;;;;7.27;1.97;;;20.60;99.90;;;;;;5095983;28;20211;-83
2022/05/26 12:28:14;;;;;;;5.10;1.70;;;20.60;99.90;;;;;;5098310;28;20280;-80
2022/05/26 12:30:57;;;;;;;4.50;2.10;;;20.40;99.90;;;;;;5117195;28;20191;-87
2022/05/26 12:33:48;;;;;;;6.57;1.87;;;20.30;99.90;;;;;;5100428;28;20203;-80
2022/05/26 12:36:34;;;;;;;4.93;1.83;;;20.30;99.90;;;;;;5118886;28;20168;-81
2022/05/26 12:39:18;;;;;;;4.93;1.70;;;20.40;99.90;;;;;;5118885;28;20178;-84
2022/05/26 12:42:17;;;;;;;5.00;1.67;;;20.60;99.90;;;;;;5100731;28;20193;-85
2022/05/26 12:45:21;;;;;;;8.37;1.80;;;20.90;99.90;;;;;;5099804;28;20167;-86
2022/05/26 12:48:17;;;;;;;6.67;1.73;;;21.00;99.90;;;;;;5112195;28;20193;-80
2022/05/26 12:50:43;;;;;;;5.90;2.10;;;21.00;99.90;;;;;;5112964;28;20254;-80
2022/05/26 12:53:18;;;;;;;7.20;1.93;;;20.60;99.90;;;;;;5108182;28;20696;-86
2022/05/26 12:56:13;;;;;;;8.10;2.10;;;20.60;99.90;;;;;;5084963;28;20192;-86
2022/05/26 12:59:02;;;;;;;5.63;1.80;;;20.40;99.90;;;;;;5113585;28;20191;-83
2022/05/26 13:01:31;;;;;;;6.27;1.87;;;20.40;99.90;;;;;;5084798;28;20195;-83
2022/05/26 13:04:10;;;;;;;6.40;2.03;;;20.30;99.90;;;;;;5104377;28;20184;-87
2022/05/26 13:06:54;;;;;;;7.10;2.20;;;20.40;99.90;;;;;;5092181;28;20196;-84
2022/05/26 13:09:38;;;;;;;8.60;2.70;;;20.50;99.90;;;;;;5094431;28;20241;-83
2022/05/26 13:12:20;;;;;;;8.33;1.93;;;20.50;1.00;;;;;;5077402;28;20198;-86
2022/05/26 13:14:56;;;;;;;9.63;2.03;;;20.50;99.90;;;;;;5094248;28;20207;-83
2022/05/26 13:17:29;;;;;;;6.70;1.83;;;20.50;99.90;;;;;;5094033;28;20639;-85
2022/05/26 13:20:19;;;;;;;5.37;1.97;;;20.70;99.90;;;;;;5086509;28;20195;-84
2022/05/26 13:22:46;;;;;;;6.60;1.70;;;20.60;99.90;;;;;;5113998;28;20203;-82
2022/05/26 13:25:16;;;;;;;7.37;2.10;;;20.40;1.00;;;;;;5113082;28;20180;-83
2022/05/26 13:28:02;;;;;;;5.63;1.40;;;20.50;99.90;;;;;;5093499;28;20217;-83
2022/05/26 13:33:29;;;;;;;5.27;1.67;;;20.70;99.90;;;;;;5114878;28;20168;-85
2022/05/26 13:36:01;;;;;;;6.63;1.73;;;20.70;99.90;;;;;;5093846;28;20183;-81
2022/05/26 13:38:46;;;;;;;5.97;1.60;;;20.70;99.90;;;;;;5109205;28;20174;-83
2022/05/26 13:41:20;;;;;;;6.40;1.90;;;20.70;99.90;;;;;;5111131;28;20291;-81
2022/05/26 13:43:47;;;;;;;6.30;1.70;;;20.60;1.00;;;;;;5111255;28;20212;-83
2022/05/26 13:46:34;;;;;;;6.80;1.10;;;20.70;1.00;;;;;;5095461;28;20553;-82
2022/05/26 13:49:22;;;;;;;5.80;1.73;;;20.60;1.00;;;;;;5112529;28;20183;-83
2022/05/26 13:51:59;;;;;;;6.07;1.80;;;20.60;1.00;;;;;;5117347;28;20174;-79
2022/05/26 13:54:41;;;;;;;7.17;2.00;;;20.70;1.00;;;;;;5103207;28;20184;-80
2022/05/26 13:57:52;;;;;;;5.73;1.63;;;20.80;1.00;;;;;;5118845;28;20234;-81
2022/05/26 14:00:33;;;;;;;5.63;2.03;;;20.70;1.00;;;;;;5116152;28;20181;-80
2022/05/26 14:03:53;;;;;;;5.70;1.83;;;20.90;1.00;;;;;;5110482;28;20177;-85
2022/05/26 14:06:52;;;;;;;5.97;1.90;;;20.80;99.90;;;;;;5110124;28;20163;-81
2022/05/26 14:09:36;;;;;;;6.40;1.90;;;21.00;99.90;;;;;;5090491;28;20204;-88
2022/05/26 14:12:30;;;;;;;6.03;1.60;;;21.20;99.90;;;;;;5094699;28;20236;-84
2022/05/26 14:14:59;;;;;;;5.10;1.60;;;20.90;99.90;;;;;;5092750;28;20179;-82
2022/05/26 14:17:27;;;;;;;6.50;1.80;;;20.60;1.00;;;;;;5111283;28;20186;-86
2022/05/26 14:19:57;;;;;;;5.23;1.90;;;20.40;1.00;;;;;;5108384;28;20230;-84
2022/05/26 14:22:26;;;;;;;6.33;1.70;;;20.50;1.00;;;;;;5111368;28;20171;-86